Time;durP1;ratioP1;P1;durP2;ratioP2;P2;SDS_P1;SDS_P2;PMS_P1;PMS_P2;Temp;Humidity;BMP_temperature;BMP_pressure;BME280_temperature;BME280_humidity;BME280_pressure;Samples;Min_cycle;Max_cycle;Signal;HPM_P1;HPM_P2
2024/04/03 00:00:03;;;;;;;;;;;;;;;19.27;32.26;99310.34;5053882;28;19920;-81
2024/04/03 00:02:28;;;;;;;;;;;;;;;19.25;32.27;99325.03;5052505;28;20359;-82
2024/04/03 00:04:53;;;;;;;;;;;;;;;19.25;32.45;99325.03;5053876;28;19913;-82
2024/04/03 00:07:19;;;;;;;;;;;;;;;19.15;32.40;99316.81;5052361;28;19935;-82
2024/04/03 00:09:44;;;;;;;;;;;;;;;19.10;32.46;99317.53;5053688;28;19916;-82
2024/04/03 00:12:10;;;;;;;;;;;;;;;19.11;32.63;99318.34;5053546;28;20393;-82
2024/04/03 00:14:35;;;;;;;;;;;;;;;18.95;32.75;99317.22;5052192;28;20381;-82
2024/04/03 00:17:00;;;;;;;;;;;;;;;18.95;32.83;99326.06;5053442;28;19913;-82
2024/04/03 00:19:26;;;;;;;;;;;;;;;18.96;32.93;99327.69;5068738;28;19920;-81
2024/04/03 00:21:51;;;;;;;;;;;;;;;18.93;33.37;99327.34;5053419;28;19970;-81
2024/04/03 00:24:17;;;;;;;;;;;;;;;18.90;32.88;99333.19;5053325;28;20385;-81
2024/04/03 00:26:42;;;;;;;;;;;;;;;18.80;33.03;99335.66;5053554;28;19916;-82
2024/04/03 00:29:08;;;;;;;;;;;;;;;18.70;33.19;99337.06;5053247;28;19912;-82
2024/04/03 00:31:33;;;;;;;;;;;;;;;18.70;33.31;99350.44;5053291;28;20389;-81
2024/04/03 00:33:58;;;;;;;;;;;;;;;18.72;33.15;99342.19;5053137;28;19936;-81
2024/04/03 00:36:24;;;;;;;;;;;;;;;18.73;33.11;99349.16;5068682;28;19916;-81
2024/04/03 00:38:49;;;;;;;;;;;;;;;18.71;33.27;99345.91;5053119;28;19939;-82
2024/04/03 00:41:14;;;;;;;;;;;;;;;18.74;33.26;99356.13;5053270;28;19913;-82
2024/04/03 00:43:39;;;;;;;;;;;;;;;18.73;33.32;99355.31;5053166;28;19970;-82
2024/04/03 00:46:05;;;;;;;;;;;;;;;18.75;33.63;99360.44;5053348;28;19912;-81
2024/04/03 00:48:31;;;;;;;;;;;;;;;18.73;33.42;99355.31;5053241;28;20004;-82
2024/04/03 00:50:57;;;;;;;;;;;;;;;18.75;33.39;99365.78;5052793;28;19913;-82
2024/04/03 00:53:23;;;;;;;;;;;;;;;18.68;33.50;99378.47;5052912;28;19913;-82
2024/04/03 00:55:48;;;;;;;;;;;;;;;18.70;33.68;99371.84;5052792;28;19917;-81
2024/04/03 00:58:13;;;;;;;;;;;;;;;18.76;33.44;99377.28;5051483;28;19917;-82
2024/04/03 01:00:39;;;;;;;;;;;;;;;18.68;33.49;99392.66;5051363;28;19916;-81
2024/04/03 01:03:05;;;;;;;;;;;;;;;18.65;33.40;99398.47;5067742;28;19921;-81
2024/04/03 01:05:30;;;;;;;;;;;;;;;18.57;33.54;99405.97;5067802;28;19938;-82
2024/04/03 01:07:56;;;;;;;;;;;;;;;18.51;33.81;99404.22;5067923;28;20441;-82
2024/04/03 01:10:21;;;;;;;;;;;;;;;18.41;33.88;99407.47;5052695;28;19913;-82
2024/04/03 01:12:47;;;;;;;;;;;;;;;18.46;33.85;99407.59;5052572;28;19916;-82
2024/04/03 01:15:12;;;;;;;;;;;;;;;18.48;33.81;99412.72;5052468;28;20367;-82
2024/04/03 01:17:37;;;;;;;;;;;;;;;18.44;33.57;99409.69;5067713;28;19913;-81
2024/04/03 01:20:03;;;;;;;;;;;;;;;18.39;33.63;99409.56;5052404;28;19913;-82
2024/04/03 01:22:28;;;;;;;;;;;;;;;18.41;33.65;99421.66;5067508;28;19920;-82
2024/04/03 01:24:53;;;;;;;;;;;;;;;18.37;33.69;99414.34;5052520;28;19920;-82
2024/04/03 01:27:19;;;;;;;;;;;;;;;18.29;33.69;99412.81;5052250;28;20393;-82
2024/04/03 01:29:44;;;;;;;;;;;;;;;18.35;33.62;99406.56;5052783;28;19923;-82
2024/04/03 01:32:09;;;;;;;;;;;;;;;18.29;33.64;99417.34;5051619;28;19913;-82
2024/04/03 01:34:34;;;;;;;;;;;;;;;18.25;33.66;99422.34;5051999;28;19974;-82
2024/04/03 01:36:59;;;;;;;;;;;;;;;18.26;33.63;99421.31;5052071;28;20297;-82
2024/04/03 01:39:27;;;;;;;;;;;;;;;17.96;34.04;99418.69;5051952;28;19996;-82
2024/04/03 01:41:52;;;;;;;;;;;;;;;17.99;33.98;99422.78;5052033;28;19940;-82
2024/04/03 01:44:17;;;;;;;;;;;;;;;18.07;33.75;99419.75;5052012;28;20369;-82
2024/04/03 01:46:42;;;;;;;;;;;;;;;18.06;33.63;99424.28;5051852;28;19999;-81
2024/04/03 01:49:08;;;;;;;;;;;;;;;18.09;33.67;99429.19;5050665;28;19912;-82
2024/04/03 01:51:33;;;;;;;;;;;;;;;18.04;33.48;99428.25;5050636;28;20328;-82
2024/04/03 01:53:58;;;;;;;;;;;;;;;18.04;33.46;99430.91;5051860;28;19952;-82
2024/04/03 01:56:23;;;;;;;;;;;;;;;18.01;33.50;99436.72;5067229;28;19917;-82
2024/04/03 01:58:49;;;;;;;;;;;;;;;17.92;33.59;99420.19;5051874;28;20434;-82
2024/04/03 02:01:14;;;;;;;;;;;;;;;17.99;33.43;99428.94;5051643;28;19909;-82
2024/04/03 02:03:39;;;;;;;;;;;;;;;18.05;33.62;99432.53;5050157;28;19977;-82
2024/04/03 02:06:04;;;;;;;;;;;;;;;18.12;33.32;99425.22;5051643;28;19921;-82
2024/04/03 02:08:30;;;;;;;;;;;;;;;18.15;33.30;99432.78;5050476;28;19912;-82
2024/04/03 02:10:55;;;;;;;;;;;;;;;18.11;33.26;99431.63;5051631;28;20293;-82
2024/04/03 02:13:20;;;;;;;;;;;;;;;18.06;33.11;99440.31;5051697;28;19923;-81
2024/04/03 02:15:55;;;;;;;;;;;;;;;18.04;33.44;99433.59;5051598;28;19927;-82
2024/04/03 02:18:20;;;;;;;;;;;;;;;18.00;33.08;99440.44;5050695;28;19913;-82
2024/04/03 02:20:46;;;;;;;;;;;;;;;17.92;32.90;99438.09;5051699;28;19920;-82
2024/04/03 02:23:11;;;;;;;;;;;;;;;17.86;33.22;99439.81;5051573;28;19913;-82
2024/04/03 02:25:37;;;;;;;;;;;;;;;17.86;32.96;99447.81;5051577;28;20355;-81
2024/04/03 02:28:02;;;;;;;;;;;;;;;17.87;33.19;99441.44;5051686;28;19963;-82
2024/04/03 02:30:28;;;;;;;;;;;;;;;17.87;33.44;99451.31;5051584;28;20316;-81
2024/04/03 02:32:54;;;;;;;;;;;;;;;17.92;33.62;99454.94;5050320;28;19913;-82
2024/04/03 02:35:19;;;;;;;;;;;;;;;17.96;33.24;99455.28;5051282;28;20304;-82
2024/04/03 02:37:44;;;;;;;;;;;;;;;17.97;33.30;99455.06;5051501;28;19967;-81
2024/04/03 02:40:09;;;;;;;;;;;;;;;17.99;33.46;99449.47;5050192;28;19966;-82
2024/04/03 02:42:35;;;;;;;;;;;;;;;17.98;33.36;99448.66;5051530;28;19920;-82
2024/04/03 02:45:00;;;;;;;;;;;;;;;17.97;33.31;99449.72;5055237;28;19976;-82
2024/04/03 02:47:25;;;;;;;;;;;;;;;17.68;33.33;99448.66;5055091;28;20308;-82
2024/04/03 02:49:50;;;;;;;;;;;;;;;17.60;33.76;99456.13;5070616;28;19919;-82
2024/04/03 02:52:16;;;;;;;;;;;;;;;17.63;33.53;99448.50;5053880;28;19912;-82
2024/04/03 02:54:41;;;;;;;;;;;;;;;17.61;33.51;99452.44;5054968;28;19991;-82
2024/04/03 02:57:06;;;;;;;;;;;;;;;17.39;33.94;99458.25;5054942;28;20470;-82
2024/04/03 02:59:32;;;;;;;;;;;;;;;17.38;33.80;99467.28;5053606;28;20385;-82
2024/04/03 03:01:57;;;;;;;;;;;;;;;17.43;33.91;99466.63;5055012;28;20013;-81
2024/04/03 03:04:24;;;;;;;;;;;;;;;17.37;33.93;99471.00;5054804;28;19920;-82
2024/04/03 03:06:49;;;;;;;;;;;;;;;17.32;34.15;99480.72;5055012;28;19913;-82
2024/04/03 03:09:16;;;;;;;;;;;;;;;17.14;34.04;99474.34;5053706;28;19924;-82
2024/04/03 03:11:41;;;;;;;;;;;;;;;17.15;34.23;99483.16;5054651;28;19917;-82
2024/04/03 03:14:06;;;;;;;;;;;;;;;17.22;33.97;99478.56;5054452;28;20008;-81
2024/04/03 03:16:31;;;;;;;;;;;;;;;17.19;34.03;99470.19;5054440;28;19912;-82
2024/04/03 03:18:57;;;;;;;;;;;;;;;17.20;33.93;99472.63;5053317;28;19920;-81
2024/04/03 03:21:22;;;;;;;;;;;;;;;17.22;34.02;99475.09;5070032;28;19963;-82
2024/04/03 03:23:47;;;;;;;;;;;;;;;17.19;33.86;99487.03;5054451;28;19913;-83
2024/04/03 03:26:12;;;;;;;;;;;;;;;17.19;33.80;99486.22;5054324;28;20018;-82
2024/04/03 03:28:38;;;;;;;;;;;;;;;17.19;33.86;99496.88;5054456;28;19913;-82
2024/04/03 03:31:03;;;;;;;;;;;;;;;17.22;33.81;99494.56;5054463;28;20006;-82
2024/04/03 03:33:28;;;;;;;;;;;;;;;17.16;33.95;99495.47;5053287;28;19913;-82
2024/04/03 03:35:55;;;;;;;;;;;;;;;17.18;34.08;99487.25;5054291;28;19921;-82
2024/04/03 03:38:20;;;;;;;;;;;;;;;17.20;34.01;99495.84;5053215;28;20323;-82
2024/04/03 03:40:46;;;;;;;;;;;;;;;17.28;33.71;99503.56;5054202;28;20003;-82
2024/04/03 03:43:11;;;;;;;;;;;;;;;17.36;33.79;99503.25;5054280;28;19917;-82
2024/04/03 03:45:46;;;;;;;;;;;;;;;17.36;33.70;99509.41;5054083;28;19916;-82
2024/04/03 03:48:12;;;;;;;;;;;;;;;17.33;33.85;99522.38;5054007;28;19916;-82
2024/04/03 03:53:21;;;;;;;;;;;;;;;17.19;34.15;99534.22;5054386;28;19919;-82
2024/04/03 03:55:47;;;;;;;;;;;;;;;17.10;34.35;99531.03;5053409;28;19917;-82
2024/04/03 03:58:12;;;;;;;;;;;;;;;17.10;34.43;99539.03;5054014;28;19913;-81
2024/04/03 04:00:37;;;;;;;;;;;;;;;17.05;34.68;99539.66;5053963;28;19916;-82
2024/04/03 04:03:03;;;;;;;;;;;;;;;17.04;34.77;99555.88;5053654;28;19943;-81
2024/04/03 04:05:28;;;;;;;;;;;;;;;17.04;34.76;99553.22;5053972;28;19935;-81
2024/04/03 04:07:53;;;;;;;;;;;;;;;17.05;34.69;99554.84;5053885;28;19919;-82
2024/04/03 04:10:18;;;;;;;;;;;;;;;17.05;35.06;99562.84;5069170;28;20009;-82
2024/04/03 04:12:44;;;;;;;;;;;;;;;17.03;35.26;99573.75;5053645;28;19917;-82
2024/04/03 04:15:09;;;;;;;;;;;;;;;17.04;35.33;99579.91;5069089;28;20281;-82
2024/04/03 04:17:34;;;;;;;;;;;;;;;17.01;35.26;99583.00;5069066;28;19999;-82
2024/04/03 04:19:59;;;;;;;;;;;;;;;16.99;35.43;99591.22;5053539;28;20007;-82
2024/04/03 04:22:26;;;;;;;;;;;;;;;16.94;35.47;99607.06;5052061;28;19970;-82
2024/04/03 04:24:52;;;;;;;;;;;;;;;16.90;35.57;99605.88;5069051;28;19916;-82
2024/04/03 04:27:18;;;;;;;;;;;;;;;16.90;35.43;99600.53;5053213;28;19920;-82
2024/04/03 04:29:45;;;;;;;;;;;;;;;16.93;34.99;99605.44;5053509;28;19912;-82
2024/04/03 04:32:10;;;;;;;;;;;;;;;16.98;35.26;99613.59;5053505;28;20473;-82
2024/04/03 04:34:39;;;;;;;;;;;;;;;17.00;34.95;99613.38;5053178;28;20016;-82
2024/04/03 04:37:04;;;;;;;;;;;;;;;17.00;35.06;99616.88;5053104;28;19920;-82
2024/04/03 04:39:30;;;;;;;;;;;;;;;17.00;34.81;99616.88;5068451;28;19912;-82
2024/04/03 04:41:55;;;;;;;;;;;;;;;17.03;34.95;99623.63;5068534;28;19913;-82
2024/04/03 04:44:21;;;;;;;;;;;;;;;17.05;35.08;99625.03;5068563;28;19920;-82
2024/04/03 04:46:49;;;;;;;;;;;;;;;17.00;34.89;99627.53;5052871;28;19913;-82
2024/04/03 04:49:15;;;;;;;;;;;;;;;16.94;35.27;99628.41;5053031;28;19912;-82
2024/04/03 04:51:40;;;;;;;;;;;;;;;16.96;35.69;99629.00;5053790;28;19916;-82
2024/04/03 04:54:06;;;;;;;;;;;;;;;16.99;34.83;99641.09;5072981;28;19912;-82
2024/04/03 04:56:31;;;;;;;;;;;;;;;16.98;35.18;99644.78;5072726;28;20347;-82
2024/04/03 04:58:56;;;;;;;;;;;;;;;16.94;35.90;99643.59;5072829;28;19912;-82
2024/04/03 05:01:21;;;;;;;;;;;;;;;16.72;35.99;99633.28;5071430;28;20004;-82
2024/04/03 05:03:47;;;;;;;;;;;;;;;16.70;35.99;99640.69;5072490;28;19920;-82
2024/04/03 05:06:15;;;;;;;;;;;;;;;16.61;36.02;99644.59;5071536;28;19970;-82
2024/04/03 05:08:41;;;;;;;;;;;;;;;16.53;36.75;99640.34;5072575;28;20307;-82
2024/04/03 05:11:07;;;;;;;;;;;;;;;16.53;36.14;99643.00;5071199;28;19978;-82
2024/04/03 05:13:33;;;;;;;;;;;;;;;16.58;36.28;99646.88;5072074;28;19938;-82
2024/04/03 05:16:08;;;;;;;;;;;;;;;16.65;36.36;99651.16;5071095;28;19916;-82
2024/04/03 05:18:34;;;;;;;;;;;;;;;16.57;36.12;99643.41;5071153;28;19912;-82
2024/04/03 05:20:59;;;;;;;;;;;;;;;16.67;35.45;99650.97;5071855;28;19916;-82
2024/04/03 05:23:25;;;;;;;;;;;;;;;16.77;35.73;99661.97;5072137;28;20299;-82
2024/04/03 05:26:00;;;;;;;;;;;;;;;16.91;35.14;99666.19;5070737;28;20344;-82
2024/04/03 05:28:25;;;;;;;;;;;;;;;17.00;35.51;99666.72;5072173;28;20404;-81
2024/04/03 05:30:53;;;;;;;;;;;;;;;17.14;35.32;99665.63;5072067;28;19959;-82
2024/04/03 05:33:19;;;;;;;;;;;;;;;17.23;34.99;99675.00;5071548;28;19971;-82
2024/04/03 05:35:57;;;;;;;;;;;;;;;17.33;34.62;99677.16;5072016;28;19920;-82
2024/04/03 05:38:23;;;;;;;;;;;;;;;17.39;34.31;99677.09;5072138;28;19912;-82
2024/04/03 05:40:48;;;;;;;;;;;;;;;17.42;34.40;99673.19;5072061;28;19969;-82
2024/04/03 05:43:14;;;;;;;;;;;;;;;17.46;34.43;99683.19;5071962;28;19913;-82
2024/04/03 05:45:39;;;;;;;;;;;;;;;17.50;34.08;99685.44;5071891;28;19913;-82
2024/04/03 05:48:04;;;;;;;;;;;;;;;17.51;34.21;99693.22;5070570;28;19920;-82
2024/04/03 05:50:30;;;;;;;;;;;;;;;17.55;34.35;99690.94;5071499;28;19924;-82
2024/04/03 05:52:55;;;;;;;;;;;;;;;17.53;33.87;99688.47;5071697;28;20424;-82
2024/04/03 05:55:20;;;;;;;;;;;;;;;17.59;33.76;99700.13;5070333;28;19923;-82
2024/04/03 05:57:46;;;;;;;;;;;;;;;17.56;33.91;99692.56;5071891;28;19913;-82
2024/04/03 06:00:13;;;;;;;;;;;;;;;17.55;33.76;99697.09;5071483;28;20316;-82
2024/04/03 06:02:38;;;;;;;;;;;;;;;17.51;33.98;99692.41;5071420;28;19935;-81
2024/04/03 06:05:03;;;;;;;;;;;;;;;17.50;33.87;99686.25;5070267;28;19912;-82
2024/04/03 06:07:29;;;;;;;;;;;;;;;17.45;33.84;99686.91;5071276;28;19982;-82
2024/04/03 06:09:54;;;;;;;;;;;;;;;17.42;34.04;99697.22;5071200;28;19924;-81
2024/04/03 06:12:19;;;;;;;;;;;;;;;17.42;33.95;99694.53;5071545;28;19948;-83
2024/04/03 06:14:44;;;;;;;;;;;;;;;17.42;34.25;99697.22;5071331;28;20431;-82
2024/04/03 06:17:10;;;;;;;;;;;;;;;17.50;34.62;99691.59;5071410;28;19963;-81
2024/04/03 06:19:35;;;;;;;;;;;;;;;17.64;34.28;99698.44;5077701;28;19920;-82
2024/04/03 06:22:00;;;;;;;;;;;;;;;17.75;34.11;99696.94;5077764;28;20372;-83
2024/04/03 06:24:25;;;;;;;;;;;;;;;17.82;33.99;99696.84;5077943;28;19920;-81
2024/04/03 06:26:51;;;;;;;;;;;;;;;17.93;33.85;99696.16;5076868;28;19913;-81
2024/04/03 06:29:18;;;;;;;;;;;;;;;17.94;33.83;99700.47;5077837;28;19941;-81
2024/04/03 06:31:43;;;;;;;;;;;;;;;17.93;34.10;99699.63;5078171;28;19913;-82
2024/04/03 06:34:09;;;;;;;;;;;;;;;17.94;33.76;99709.28;5076654;28;19913;-81
2024/04/03 06:36:34;;;;;;;;;;;;;;;17.84;34.07;99711.66;5077595;28;19917;-82
2024/04/03 06:38:59;;;;;;;;;;;;;;;17.93;33.75;99709.50;5078068;28;19916;-81
2024/04/03 06:41:25;;;;;;;;;;;;;;;18.06;33.69;99712.84;5077993;28;19912;-82
2024/04/03 06:43:50;;;;;;;;;;;;;;;18.14;34.01;99719.75;5077929;28;19917;-82
2024/04/03 06:46:15;;;;;;;;;;;;;;;18.22;33.76;99724.81;5077831;28;19912;-82
2024/04/03 06:48:40;;;;;;;;;;;;;;;18.29;33.59;99720.19;5077633;28;20308;-82
2024/04/03 06:51:06;;;;;;;;;;;;;;;18.23;33.83;99721.09;5077190;28;20373;-82
2024/04/03 06:53:35;;;;;;;;;;;;;;;18.40;34.23;99727.47;5076019;28;19962;-82
2024/04/03 06:56:01;;;;;;;;;;;;;;;18.48;33.61;99737.03;5076971;28;19920;-82
2024/04/03 06:58:26;;;;;;;;;;;;;;;18.57;33.45;99733.00;5076249;28;19912;-82
2024/04/03 07:00:52;;;;;;;;;;;;;;;18.65;33.30;99729.28;5076418;28;19948;-82
2024/04/03 07:03:17;;;;;;;;;;;;;;;18.56;33.34;99734.06;5077614;28;20077;-81
2024/04/03 07:05:46;;;;;;;;;;;;;;;18.58;33.54;99737.34;5077112;28;19924;-81
2024/04/03 07:08:11;;;;;;;;;;;;;;;18.67;33.49;99745.91;5077747;28;19919;-82
2024/04/03 07:10:36;;;;;;;;;;;;;;;18.72;33.79;99733.50;5077905;28;19912;-82
2024/04/03 07:13:03;;;;;;;;;;;;;;;18.83;33.20;99739.94;5077458;28;19923;-82
2024/04/03 07:15:29;;;;;;;;;;;;;;;18.90;32.94;99732.63;5074774;28;19927;-81
2024/04/03 07:17:55;;;;;;;;;;;;;;;19.00;32.97;99738.25;5077233;28;19998;-81
2024/04/03 07:20:24;;;;;;;;;;;;;;;18.98;32.66;99736.84;5077106;28;19978;-82
2024/04/03 07:22:50;;;;;;;;;;;;;;;19.03;32.75;99734.28;5072395;28;19916;-82
2024/04/03 07:25:15;;;;;;;;;;;;;;;19.04;33.37;99725.22;5077229;28;19924;-82
2024/04/03 07:27:44;;;;;;;;;;;;;;;19.11;32.69;99735.81;5077348;28;19991;-82
2024/04/03 07:30:09;;;;;;;;;;;;;;;19.21;32.67;99728.88;5071728;28;19916;-82
2024/04/03 07:32:35;;;;;;;;;;;;;;;19.28;32.58;99726.09;5072788;28;19912;-82
2024/04/03 07:35:00;;;;;;;;;;;;;;;19.39;32.56;99736.03;5070729;28;19925;-82
2024/04/03 07:37:25;;;;;;;;;;;;;;;19.53;32.38;99724.09;5062356;28;19917;-82
2024/04/03 07:39:51;;;;;;;;;;;;;;;19.62;31.76;99730.72;5071740;28;20082;-82
2024/04/03 07:42:16;;;;;;;;;;;;;;;19.70;32.16;99734.09;5072685;28;19921;-82
2024/04/03 07:44:41;;;;;;;;;;;;;;;19.75;31.81;99727.00;5073877;28;20421;-83
2024/04/03 07:47:06;;;;;;;;;;;;;;;19.64;31.47;99727.81;5073404;28;19917;-83
2024/04/03 07:49:32;;;;;;;;;;;;;;;19.66;31.78;99726.53;5071702;28;19923;-82
2024/04/03 07:51:57;;;;;;;;;;;;;;;19.63;32.05;99718.97;5066546;28;20300;-82
2024/04/03 07:54:22;;;;;;;;;;;;;;;19.70;32.21;99716.16;5067016;28;19921;-82
2024/04/03 07:56:47;;;;;;;;;;;;;;;19.76;32.07;99717.91;5067366;28;19916;-82
2024/04/03 07:59:14;;;;;;;;;;;;;;;19.89;32.12;99724.91;5071971;28;20288;-82
2024/04/03 08:01:39;;;;;;;;;;;;;;;20.00;31.53;99714.16;5071330;28;19916;-83
2024/04/03 08:04:04;;;;;;;;;;;;;;;20.19;31.66;99706.81;5084421;28;19946;-82
2024/04/03 08:06:29;;;;;;;;;;;;;;;20.34;31.48;99708.19;5073362;28;19956;-81
2024/04/03 08:08:54;;;;;;;;;;;;;;;20.46;31.41;99714.34;5073759;28;19913;-82
2024/04/03 08:11:20;;;;;;;;;;;;;;;20.37;30.37;99708.53;5073665;28;19912;-82
2024/04/03 08:13:45;;;;;;;;;;;;;;;20.42;30.17;99707.84;5073567;28;19982;-82
2024/04/03 08:16:10;;;;;;;;;;;;;;;20.43;29.25;99718.31;5071627;28;20309;-82
2024/04/03 08:18:38;;;;;;;;;;;;;;;20.45;29.36;99708.19;5072925;28;19913;-82
2024/04/03 08:21:06;;;;;;;;;;;;;;;20.51;29.58;99701.84;5071916;28;19913;-82
2024/04/03 08:23:31;;;;;;;;;;;;;;;20.69;29.20;99708.09;5071869;28;20419;-82
2024/04/03 08:26:05;;;;;;;;;;;;;;;20.83;28.03;99706.78;5071746;28;20020;-83
2024/04/03 08:28:30;;;;;;;;;;;;;;;20.90;27.16;99696.69;5069418;28;19917;-83
2024/04/03 08:30:55;;;;;;;;;;;;;;;21.02;27.43;99696.63;5071701;28;19919;-82
2024/04/03 08:33:21;;;;;;;;;;;;;;;21.04;27.58;99699.88;5073005;28;19917;-82
2024/04/03 08:35:47;;;;;;;;;;;;;;;21.16;27.92;99698.75;5070241;28;19943;-82
2024/04/03 08:38:12;;;;;;;;;;;;;;;21.13;27.59;99693.88;5072713;28;19919;-82
2024/04/03 08:40:38;;;;;;;;;;;;;;;21.23;27.27;99696.75;5072510;28;19937;-82
2024/04/03 08:43:04;;;;;;;;;;;;;;;21.12;27.49;99691.44;5070898;28;19912;-81
2024/04/03 08:45:30;;;;;;;;;;;;;;;21.29;27.01;99689.59;5070882;28;19986;-82
2024/04/03 08:47:56;;;;;;;;;;;;;;;21.49;27.07;99683.72;5053818;28;20425;-81
2024/04/03 08:50:21;;;;;;;;;;;;;;;21.63;27.35;99676.97;5068757;28;19916;-82
2024/04/03 08:52:47;;;;;;;;;;;;;;;21.80;27.67;99680.44;5068701;28;19966;-80
2024/04/03 08:55:14;;;;;;;;;;;;;;;22.04;27.40;99682.94;5064541;28;19943;-82
2024/04/03 08:57:39;;;;;;;;;;;;;;;22.21;26.40;99681.00;5052560;28;19913;-82
2024/04/03 09:00:05;;;;;;;;;;;;;;;22.13;26.40;99679.56;5052446;28;19918;-82
2024/04/03 09:02:30;;;;;;;;;;;;;;;22.30;26.41;99679.53;5080475;28;19917;-82
2024/04/03 09:04:56;;;;;;;;;;;;;;;22.45;25.74;99673.50;5064105;28;20316;-81
2024/04/03 09:07:21;;;;;;;;;;;;;;;22.67;26.27;99668.06;5072651;28;19919;-82
2024/04/03 09:09:47;;;;;;;;;;;;;;;22.88;25.14;99674.50;5071065;28;19981;-80
2024/04/03 09:12:12;;;;;;;;;;;;;;;23.07;24.74;99675.78;5069369;28;19904;-81
2024/04/03 09:14:38;;;;;;;;;;;;;;;23.20;24.80;99675.34;5067053;28;20383;-81
2024/04/03 09:17:05;;;;;;;;;;;;;;;23.41;25.89;99673.63;5069024;28;19916;-81
2024/04/03 09:19:30;;;;;;;;;;;;;;;23.53;24.20;99673.41;5070020;28;19916;-81
2024/04/03 09:21:57;;;;;;;;;;;;;;;23.50;24.04;99663.16;5064388;28;20385;-81
2024/04/03 09:24:23;;;;;;;;;;;;;;;23.61;24.46;99665.69;5071679;28;19970;-80
2024/04/03 09:26:51;;;;;;;;;;;;;;;23.73;24.45;99662.78;5066280;28;19937;-82
2024/04/03 09:29:17;;;;;;;;;;;;;;;24.05;23.52;99657.31;5058842;28;19973;-81
2024/04/03 09:31:43;;;;;;;;;;;;;;;23.97;22.80;99655.13;5063146;28;19916;-80
2024/04/03 09:34:08;;;;;;;;;;;;;;;23.99;22.15;99655.66;5061374;28;20317;-81
2024/04/03 09:36:34;;;;;;;;;;;;;;;24.18;23.56;99656.81;5071355;28;19921;-81
2024/04/03 09:39:00;;;;;;;;;;;;;;;24.36;23.67;99652.88;5059091;28;20461;-81
2024/04/03 09:41:28;;;;;;;;;;;;;;;24.58;22.56;99663.47;5053253;28;19921;-82
2024/04/03 09:43:58;;;;;;;;;;;;;;;24.62;20.80;99657.28;5064973;28;20460;-81
2024/04/03 09:46:26;;;;;;;;;;;;;;;24.37;22.21;99643.69;5070084;28;20428;-81
2024/04/03 09:48:51;;;;;;;;;;;;;;;24.45;22.90;99651.25;5069744;28;20364;-81
2024/04/03 09:51:17;;;;;;;;;;;;;;;24.61;23.06;99634.06;5070262;28;19913;-81
2024/04/03 09:53:43;;;;;;;;;;;;;;;24.83;22.69;99635.69;5067770;28;19983;-81
2024/04/03 09:56:09;;;;;;;;;;;;;;;25.09;21.20;99636.53;5071336;28;19927;-80
2024/04/03 09:58:35;;;;;;;;;;;;;;;25.15;21.49;99638.97;5064286;28;20388;-81
2024/04/03 10:01:03;;;;;;;;;;;;;;;25.31;22.94;99631.69;5066011;28;19917;-81
2024/04/03 10:03:29;;;;;;;;;;;;;;;25.52;20.02;99635.97;5070962;28;19921;-81
2024/04/03 10:05:58;;;;;;;;;;;;;;;25.71;21.79;99630.00;5067012;28;19923;-81
2024/04/03 10:08:23;;;;;;;;;;;;;;;25.84;21.76;99627.50;5070148;28;20380;-81
2024/04/03 10:10:50;;;;;;;;;;;;;;;25.95;21.09;99631.78;5070344;28;19919;-81
2024/04/03 10:13:21;;;;;;;;;;;;;;;25.91;18.62;99630.72;5069261;28;19912;-82
2024/04/03 10:15:58;;;;;;;;;;;;;;;25.97;18.99;99624.22;5070281;28;19924;-81
2024/04/03 10:18:25;;;;;;;;;;;;;;;26.05;20.07;99622.84;5085989;28;19954;-81
2024/04/03 10:20:50;;;;;;;;;;;;;;;26.27;20.40;99634.09;5067709;28;20420;-81
2024/04/03 10:23:17;;;;;;;;;;;;;;;26.31;19.88;99634.34;5062693;28;19916;-80
2024/04/03 10:25:43;;;;;;;;;;;;;;;26.39;17.55;99614.03;5068259;28;19920;-81
2024/04/03 10:28:11;;;;;;;;;;;;;;;26.36;19.21;99620.00;5060899;28;19917;-81
2024/04/03 10:30:37;;;;;;;;;;;;;;;26.41;19.25;99625.41;5071107;28;19928;-80
2024/04/03 10:33:03;;;;;;;;;;;;;;;26.69;19.13;99621.16;5064729;28;20484;-81
2024/04/03 10:35:29;;;;;;;;;;;;;;;26.88;18.33;99616.69;5067412;28;20419;-81
2024/04/03 10:38:01;;;;;;;;;;;;;;;26.94;18.63;99625.59;5064243;28;19917;-79
2024/04/03 10:40:27;;;;;;;;;;;;;;;26.94;17.72;99623.69;5054978;28;19916;-82
2024/04/03 10:42:52;;;;;;;;;;;;;;;27.00;18.71;99619.06;5070108;28;20316;-81
2024/04/03 10:45:18;;;;;;;;;;;;;;;27.11;18.69;99626.00;5052258;28;19917;-81
2024/04/03 10:47:44;;;;;;;;;;;;;;;27.29;17.95;99611.75;5057538;28;19971;-82
2024/04/03 10:50:10;;;;;;;;;;;;;;;27.46;17.04;99614.00;5070901;28;19916;-81
2024/04/03 10:52:35;;;;;;;;;;;;;;;27.38;18.66;99612.72;5064033;28;19919;-81
2024/04/03 10:55:01;;;;;;;;;;;;;;;26.99;18.29;99612.03;5054318;28;20381;-81
2024/04/03 10:57:27;;;;;;;;;;;;;;;26.65;19.22;99606.56;5070931;28;19919;-81
2024/04/03 11:00:02;;;;;;;;;;;;;;;26.89;17.70;99608.28;5068242;28;20370;-81
2024/04/03 11:02:27;;;;;;;;;;;;;;;27.19;18.08;99607.22;5066013;28;19917;-79
2024/04/03 11:04:53;;;;;;;;;;;;;;;27.66;18.15;99594.06;5071625;28;19924;-81
2024/04/03 11:07:18;;;;;;;;;;;;;;;27.96;16.70;99598.28;5074696;28;19919;-81
2024/04/03 11:09:44;;;;;;;;;;;;;;;28.14;18.92;99602.94;5088119;28;19998;-80
2024/04/03 11:12:12;;;;;;;;;;;;;;;28.15;18.01;99596.41;5057777;28;19986;-80
2024/04/03 11:14:38;;;;;;;;;;;;;;;28.06;16.92;99592.72;5069391;28;20377;-81
2024/04/03 11:17:07;;;;;;;;;;;;;;;28.26;17.57;99591.69;5067427;28;19982;-82
2024/04/03 11:19:33;;;;;;;;;;;;;;;28.46;16.68;99583.25;5065380;28;19923;-82
2024/04/03 11:21:58;;;;;;;;;;;;;;;28.66;16.87;99574.78;5065307;28;19920;-81
2024/04/03 11:24:23;;;;;;;;;;;;;;;28.68;17.44;99574.47;5057425;28;19917;-82
2024/04/03 11:26:49;;;;;;;;;;;;;;;28.70;17.72;99569.56;5057999;28;19962;-81
2024/04/03 11:29:25;;;;;;;;;;;;;;;28.52;17.04;99560.34;5059664;28;20312;-82
2024/04/03 11:31:50;;;;;;;;;;;;;;;28.69;17.65;99559.78;5063031;28;19909;-82
2024/04/03 11:34:16;;;;;;;;;;;;;;;28.97;16.07;99563.41;5055421;28;19917;-81
2024/04/03 11:36:41;;;;;;;;;;;;;;;29.10;16.46;99554.50;5055945;28;20293;-82
2024/04/03 11:39:08;;;;;;;;;;;;;;;28.95;17.89;99555.56;5067277;28;19920;-81
2024/04/03 11:41:33;;;;;;;;;;;;;;;28.96;18.13;99551.75;5072808;28;19969;-80
2024/04/03 11:43:59;;;;;;;;;;;;;;;29.02;16.59;99552.47;5072742;28;20011;-81
2024/04/03 11:46:25;;;;;;;;;;;;;;;29.18;17.62;99542.13;5071389;28;19913;-81
2024/04/03 11:48:51;;;;;;;;;;;;;;;29.30;17.03;99537.00;5073880;28;19927;-81
2024/04/03 11:51:16;;;;;;;;;;;;;;;29.42;16.54;99540.03;5066157;28;19931;-80
2024/04/03 11:53:42;;;;;;;;;;;;;;;29.53;17.80;99538.75;5067380;28;19916;-80
2024/04/03 11:56:07;;;;;;;;;;;;;;;29.55;16.43;99530.28;5054070;28;19928;-81
2024/04/03 11:58:32;;;;;;;;;;;;;;;29.40;15.82;99523.19;5063987;28;19916;-83
2024/04/03 12:00:57;;;;;;;;;;;;;;;29.38;17.57;99522.69;5054775;28;20385;-82
2024/04/03 12:03:23;;;;;;;;;;;;;;;29.29;16.40;99524.50;5066628;28;19970;-82
2024/04/03 12:05:50;;;;;;;;;;;;;;;29.30;17.47;99523.41;5085657;28;21659;-82
2024/04/03 12:08:16;;;;;;;;;;;;;;;29.23;16.54;99515.66;5065255;28;19916;-81
2024/04/03 12:10:41;;;;;;;;;;;;;;;29.26;17.31;99519.69;5058770;28;20011;-81
2024/04/03 12:13:07;;;;;;;;;;;;;;;29.21;16.52;99517.06;5072268;28;20452;-81
2024/04/03 12:15:33;;;;;;;;;;;;;;;29.05;17.46;99520.06;5071423;28;19924;-80
2024/04/03 12:17:59;;;;;;;;;;;;;;;29.06;17.16;99523.59;5070026;28;20396;-83
2024/04/03 12:20:30;;;;;;;;;;;;;;;28.99;16.83;99518.56;5066994;28;19920;-83
2024/04/03 12:22:56;;;;;;;;;;;;;;;28.94;17.42;99518.63;5071047;28;19966;-81
2024/04/03 12:25:21;;;;;;;;;;;;;;;28.76;17.24;99525.69;5062392;28;20307;-81
2024/04/03 12:27:46;;;;;;;;;;;;;;;28.63;16.96;99517.50;5057911;28;20306;-82
2024/04/03 12:30:12;;;;;;;;;;;;;;;28.31;18.14;99512.88;5073126;28;20000;-82
2024/04/03 12:32:37;;;;;;;;;;;;;;;27.97;18.03;99507.63;5071729;28;19912;-82
2024/04/03 12:35:03;;;;;;;;;;;;;;;27.90;17.82;99518.03;5071003;28;19952;-82
2024/04/03 12:37:28;;;;;;;;;;;;;;;27.82;17.11;99503.22;5072882;28;19920;-83
2024/04/03 12:39:53;;;;;;;;;;;;;;;27.78;18.71;99491.34;5072855;28;19920;-82
2024/04/03 12:42:18;;;;;;;;;;;;;;;27.85;18.62;99487.16;5081742;28;19908;-83